Time;durP1;ratioP1;P1;durP2;ratioP2;P2;SDS_P1;SDS_P2;PMS_P1;PMS_P2;Temp;Humidity;BMP_temperature;BMP_pressure;BME280_temperature;BME280_humidity;BME280_pressure;Samples;Min_cycle;Max_cycle;Signal;HPM_P1;HPM_P2
2021/05/14 00:01:23;;;;;;;22.97;8.90;;;;;;;;;;5093468;28;20028;-83
2021/05/14 00:03:48;;;;;;;24.00;9.30;;;;;;;;;;5091591;28;20029;-83
2021/05/14 00:06:14;;;;;;;26.77;9.47;;;;;;;;;;5100357;28;20027;-83
2021/05/14 00:08:39;;;;;;;27.27;10.50;;;;;;;;;;5104865;28;20031;-83
2021/05/14 00:11:04;;;;;;;31.53;11.77;;;;;;;;;;5102245;28;20103;-82
2021/05/14 00:13:31;;;;;;;29.83;10.93;;;;;;;;;;5105207;28;20027;-83
2021/05/14 00:15:56;;;;;;;28.20;10.63;;;;;;;;;;5121591;28;20046;-82
2021/05/14 00:18:21;;;;;;;26.73;10.00;;;;;;;;;;5126017;28;20468;-82
2021/05/14 00:20:47;;;;;;;23.10;9.33;;;;;;;;;;5125857;28;20027;-82
2021/05/14 00:23:12;;;;;;;28.13;10.40;;;;;;;;;;5126181;28;20099;-82
2021/05/14 00:25:38;;;;;;;23.63;8.93;;;;;;;;;;5126259;28;20024;-83
2021/05/14 00:28:03;;;;;;;19.03;7.53;;;;;;;;;;5125749;28;20023;-83
2021/05/14 00:30:29;;;;;;;19.77;7.87;;;;;;;;;;5120073;28;20024;-83
2021/05/14 00:32:54;;;;;;;18.57;7.67;;;;;;;;;;5119275;28;20281;-82
2021/05/14 00:35:19;;;;;;;16.13;7.13;;;;;;;;;;5125220;28;20110;-83
2021/05/14 00:37:45;;;;;;;16.30;6.87;;;;;;;;;;5120691;28;20022;-83
2021/05/14 00:40:10;;;;;;;17.83;6.87;;;;;;;;;;5123572;28;20019;-83
2021/05/14 00:42:36;;;;;;;21.90;7.60;;;;;;;;;;5124348;28;20495;-83
2021/05/14 00:45:02;;;;;;;21.40;7.70;;;;;;;;;;5119265;28;20059;-83
2021/05/14 00:47:28;;;;;;;18.83;7.13;;;;;;;;;;5114553;28;20015;-83
2021/05/14 00:49:53;;;;;;;22.60;8.23;;;;;;;;;;5123209;28;20030;-83
2021/05/14 00:52:19;;;;;;;26.43;8.50;;;;;;;;;;5122879;28;20027;-83
2021/05/14 00:54:45;;;;;;;22.70;8.30;;;;;;;;;;5121547;28;20103;-82
2021/05/14 00:57:12;;;;;;;24.33;9.77;;;;;;;;;;5123098;28;20027;-83
2021/05/14 00:59:38;;;;;;;26.83;9.40;;;;;;;;;;5122273;28;20020;-83
2021/05/14 01:02:04;;;;;;;25.90;9.07;;;;;;;;;;5120031;28;20380;-82
2021/05/14 01:04:29;;;;;;;30.73;11.30;;;;;;;;;;5112616;22;20052;-67
2021/05/14 01:06:54;;;;;;;23.23;9.03;;;;;;;;;;5073093;28;20380;-67
2021/05/14 01:09:20;;;;;;;24.63;10.03;;;;;;;;;;5073556;28;20032;-67
2021/05/14 01:11:45;;;;;;;20.87;8.20;;;;;;;;;;5068693;28;20028;-67
2021/05/14 01:14:10;;;;;;;17.47;7.17;;;;;;;;;;5072562;28;20029;-67
2021/05/14 01:16:36;;;;;;;14.57;6.33;;;;;;;;;;5068607;28;20107;-67
2021/05/14 01:19:02;;;;;;;17.97;7.60;;;;;;;;;;5073558;28;20025;-66
2021/05/14 01:21:27;;;;;;;14.47;5.87;;;;;;;;;;5070091;28;20034;-66
2021/05/14 01:23:52;;;;;;;11.00;5.33;;;;;;;;;;5073307;28;20028;-67
2021/05/14 01:26:19;;;;;;;11.60;5.77;;;;;;;;;;5071325;28;20048;-67
2021/05/14 01:28:44;;;;;;;12.83;5.67;;;;;;;;;;5068997;28;20028;-67
2021/05/14 01:31:10;;;;;;;12.63;5.40;;;;;;;;;;5073064;28;20040;-67
2021/05/14 01:33:35;;;;;;;13.97;5.80;;;;;;;;;;5073120;28;20032;-67
2021/05/14 01:36:01;;;;;;;13.67;5.53;;;;;;;;;;5072739;28;20082;-67
2021/05/14 01:38:26;;;;;;;13.57;6.00;;;;;;;;;;5073106;28;20028;-67
2021/05/14 01:40:52;;;;;;;13.83;6.43;;;;;;;;;;5062559;28;20488;-67
2021/05/14 01:43:17;;;;;;;13.23;5.53;;;;;;;;;;5071942;28;20028;-67
2021/05/14 01:45:43;;;;;;;12.03;5.47;;;;;;;;;;5072880;28;20048;-67
2021/05/14 01:48:08;;;;;;;12.10;5.90;;;;;;;;;;5072110;28;20021;-67
2021/05/14 01:50:33;;;;;;;12.63;6.00;;;;;;;;;;5071036;28;20036;-66
2021/05/14 01:52:58;;;;;;;14.57;6.03;;;;;;;;;;5072760;28;20066;-67
2021/05/14 01:55:24;;;;;;;11.97;5.70;;;;;;;;;;5072281;28;20051;-67
2021/05/14 01:57:49;;;;;;;12.63;5.57;;;;;;;;;;5068819;28;20035;-67
2021/05/14 02:00:15;;;;;;;12.23;6.20;;;;;;;;;;5071673;28;20055;-67
2021/05/14 02:02:40;;;;;;;14.93;6.97;;;;;;;;;;5059918;28;20024;-67
2021/05/14 02:05:06;;;;;;;16.73;7.00;;;;;;;;;;5074646;28;20056;-67
2021/05/14 02:07:31;;;;;;;18.83;6.17;;;;;;;;;;5070810;28;20086;-67
2021/05/14 02:09:57;;;;;;;16.50;6.87;;;;;;;;;;5084437;28;20037;-67
2021/05/14 02:12:22;;;;;;;15.60;6.83;;;;;;;;;;5077576;28;20066;-67
2021/05/14 02:14:48;;;;;;;19.27;6.80;;;;;;;;;;5072372;28;20028;-67
2021/05/14 02:17:13;;;;;;;15.63;6.67;;;;;;;;;;5072131;28;20021;-67
2021/05/14 02:19:38;;;;;;;15.87;7.20;;;;;;;;;;5071635;28;20035;-67
2021/05/14 02:22:04;;;;;;;16.23;6.27;;;;;;;;;;5072030;28;20028;-67
2021/05/14 02:24:29;;;;;;;15.77;6.63;;;;;;;;;;5071444;28;20028;-67
2021/05/14 02:26:55;;;;;;;14.27;6.43;;;;;;;;;;5069928;28;20017;-67
2021/05/14 02:29:20;;;;;;;16.97;7.57;;;;;;;;;;5071929;28;20025;-67
2021/05/14 02:31:45;;;;;;;19.17;7.30;;;;;;;;;;5062280;28;20035;-67
2021/05/14 02:34:11;;;;;;;20.60;7.73;;;;;;;;;;5071464;28;20103;-67
2021/05/14 02:36:36;;;;;;;20.07;7.57;;;;;;;;;;5080030;28;20028;-67
2021/05/14 02:39:01;;;;;;;18.47;7.20;;;;;;;;;;5072624;28;20480;-67
2021/05/14 02:41:26;;;;;;;21.87;8.67;;;;;;;;;;5071976;28;20380;-67
2021/05/14 02:43:52;;;;;;;19.00;8.43;;;;;;;;;;5072394;28;20036;-67
2021/05/14 02:46:17;;;;;;;22.43;8.80;;;;;;;;;;5071802;28;20053;-67
2021/05/14 02:48:42;;;;;;;21.77;8.30;;;;;;;;;;5072309;28;20083;-67
2021/05/14 02:51:08;;;;;;;20.77;8.83;;;;;;;;;;5071876;28;20032;-67
2021/05/14 02:53:34;;;;;;;21.60;8.40;;;;;;;;;;5072353;28;20032;-67
2021/05/14 02:55:59;;;;;;;21.10;7.87;;;;;;;;;;5071847;28;20021;-67
2021/05/14 02:58:24;;;;;;;21.40;8.83;;;;;;;;;;5072223;28;20170;-67
2021/05/14 03:00:49;;;;;;;24.30;8.57;;;;;;;;;;5071742;28;20465;-67
2021/05/14 03:03:15;;;;;;;20.40;7.57;;;;;;;;;;5056823;28;20040;-67
2021/05/14 03:05:40;;;;;;;21.40;8.00;;;;;;;;;;5068397;28;20043;-67
2021/05/14 03:08:05;;;;;;;25.50;9.40;;;;;;;;;;5071840;28;20024;-67
2021/05/14 03:10:31;;;;;;;23.20;8.33;;;;;;;;;;5071957;28;20064;-67
2021/05/14 03:12:56;;;;;;;22.87;8.43;;;;;;;;;;5071861;28;20029;-67
2021/05/14 03:15:21;;;;;;;23.40;8.23;;;;;;;;;;5071809;28;20086;-66
2021/05/14 03:17:47;;;;;;;24.00;8.50;;;;;;;;;;5072137;28;20455;-67
2021/05/14 03:20:13;;;;;;;22.80;8.83;;;;;;;;;;5068602;28;20028;-67
2021/05/14 03:22:38;;;;;;;19.60;7.47;;;;;;;;;;5071742;28;20081;-67
2021/05/14 03:25:04;;;;;;;21.17;8.30;;;;;;;;;;5071619;28;20028;-66
2021/05/14 03:27:29;;;;;;;20.67;7.93;;;;;;;;;;5072314;28;20017;-66
2021/05/14 03:29:55;;;;;;;21.60;7.70;;;;;;;;;;5071764;28;20042;-66
2021/05/14 03:32:21;;;;;;;23.33;8.63;;;;;;;;;;5072078;28;20025;-67
2021/05/14 03:34:46;;;;;;;20.17;7.43;;;;;;;;;;5071409;28;20090;-66
2021/05/14 03:37:11;;;;;;;22.87;8.37;;;;;;;;;;5071446;28;20086;-67
2021/05/14 03:39:43;;;;;;;21.63;8.50;;;;;;;;;;5071812;28;20028;-66
2021/05/14 03:42:16;;;;;;;23.67;8.80;;;;;;;;;;5071839;28;20059;-66
2021/05/14 03:44:42;;;;;;;21.27;7.70;;;;;;;;;;5072744;28;20017;-66
2021/05/14 03:47:07;;;;;;;21.03;8.20;;;;;;;;;;5075790;28;20019;-66
2021/05/14 03:49:36;;;;;;;21.23;7.53;;;;;;;;;;5075610;28;20104;-66
2021/05/14 03:52:09;;;;;;;20.00;7.60;;;;;;;;;;5075373;28;20120;-66
2021/05/14 03:54:34;;;;;;;18.93;7.07;;;;;;;;;;5075430;28;20495;-66
2021/05/14 03:57:00;;;;;;;22.13;7.83;;;;;;;;;;5077262;28;20013;-67
2021/05/14 03:59:26;;;;;;;20.47;7.53;;;;;;;;;;5075217;28;20040;-67
2021/05/14 04:01:51;;;;;;;22.73;6.90;;;;;;;;;;5073381;28;20153;-67
2021/05/14 04:04:17;;;;;;;19.27;7.33;;;;;;;;;;5075563;28;20102;-67
2021/05/14 04:06:42;;;;;;;19.10;6.53;;;;;;;;;;5075111;28;20081;-66
2021/05/14 04:09:08;;;;;;;20.23;6.73;;;;;;;;;;5075416;28;20040;-66
2021/05/14 04:16:42;;;;;;;19.80;6.30;;;;;;;;;;5074509;28;20093;-66
2021/05/14 04:19:07;;;;;;;18.73;6.23;;;;;;;;;;5074755;28;20115;-67
2021/05/14 04:21:32;;;;;;;19.87;7.67;;;;;;;;;;5074456;28;20016;-66
2021/05/14 04:23:58;;;;;;;21.77;8.07;;;;;;;;;;5075016;28;20099;-67
2021/05/14 04:26:23;;;;;;;22.77;7.47;;;;;;;;;;5074441;28;20086;-66
2021/05/14 04:28:48;;;;;;;17.97;7.07;;;;;;;;;;5074494;28;20070;-67
2021/05/14 04:31:14;;;;;;;20.03;7.27;;;;;;;;;;5074313;28;20040;-67
2021/05/14 04:33:39;;;;;;;18.67;8.03;;;;;;;;;;5074966;28;20024;-67
2021/05/14 04:36:05;;;;;;;22.43;7.40;;;;;;;;;;5073972;28;20395;-67
2021/05/14 04:38:30;;;;;;;22.27;7.67;;;;;;;;;;5074591;28;20256;-67
2021/05/14 04:40:55;;;;;;;18.83;7.00;;;;;;;;;;5073821;28;20078;-67
2021/05/14 04:43:21;;;;;;;21.67;8.53;;;;;;;;;;5074569;28;20032;-67
2021/05/14 04:45:46;;;;;;;19.13;7.53;;;;;;;;;;5073786;28;20099;-67
2021/05/14 04:48:11;;;;;;;20.07;7.93;;;;;;;;;;5072678;28;20024;-67
2021/05/14 04:50:37;;;;;;;20.00;7.77;;;;;;;;;;5073318;28;20025;-67
2021/05/14 04:53:07;;;;;;;22.37;7.63;;;;;;;;;;5074341;28;20150;-67
2021/05/14 04:55:32;;;;;;;18.87;7.10;;;;;;;;;;5073126;28;20030;-67
2021/05/14 04:57:57;;;;;;;23.20;7.67;;;;;;;;;;5075698;28;20028;-67
2021/05/14 05:00:23;;;;;;;18.43;7.17;;;;;;;;;;5073593;28;20023;-67
2021/05/14 05:02:48;;;;;;;27.60;8.73;;;;;;;;;;5073598;28;20037;-67
2021/05/14 05:05:14;;;;;;;23.40;7.37;;;;;;;;;;5060087;28;20052;-67
2021/05/14 05:07:39;;;;;;;19.13;7.03;;;;;;;;;;5065379;28;20457;-66
2021/05/14 05:10:04;;;;;;;17.57;6.53;;;;;;;;;;5073554;28;20032;-67
2021/05/14 05:12:30;;;;;;;19.33;7.30;;;;;;;;;;5073816;28;20028;-67
2021/05/14 05:14:55;;;;;;;19.10;6.63;;;;;;;;;;5073136;28;20055;-67
2021/05/14 05:17:20;;;;;;;17.83;6.83;;;;;;;;;;5073489;28;20020;-67
2021/05/14 05:19:45;;;;;;;17.50;6.70;;;;;;;;;;5073255;28;20043;-67
2021/05/14 05:22:11;;;;;;;19.10;6.57;;;;;;;;;;5073666;28;20540;-67
2021/05/14 05:24:36;;;;;;;18.43;6.53;;;;;;;;;;5073072;28;20491;-67
2021/05/14 05:27:01;;;;;;;21.27;6.97;;;;;;;;;;5073275;28;20119;-67
2021/05/14 05:29:27;;;;;;;16.30;6.00;;;;;;;;;;5073170;28;20480;-67
2021/05/14 05:31:52;;;;;;;19.97;7.17;;;;;;;;;;5072931;28;20040;-67
2021/05/14 05:34:18;;;;;;;20.90;7.00;;;;;;;;;;5073168;28;20024;-67
2021/05/14 05:36:43;;;;;;;21.27;6.80;;;;;;;;;;5054787;28;20029;-67
2021/05/14 05:39:09;;;;;;;22.40;6.80;;;;;;;;;;5073029;28;20017;-67
2021/05/14 05:41:34;;;;;;;17.90;6.50;;;;;;;;;;5072688;28;20461;-67
2021/05/14 05:44:00;;;;;;;20.20;7.27;;;;;;;;;;5063363;28;20033;-67
2021/05/14 05:46:25;;;;;;;20.67;7.00;;;;;;;;;;5067662;28;20431;-67
2021/05/14 05:48:50;;;;;;;21.03;7.40;;;;;;;;;;5073315;28;20037;-67
2021/05/14 05:51:16;;;;;;;19.23;6.90;;;;;;;;;;5072559;28;20086;-67
2021/05/14 05:53:42;;;;;;;21.67;6.93;;;;;;;;;;5072704;28;20459;-67
2021/05/14 05:56:08;;;;;;;19.27;7.10;;;;;;;;;;5072748;28;20496;-67
2021/05/14 05:58:33;;;;;;;17.03;6.17;;;;;;;;;;5075144;28;20024;-67
2021/05/14 06:00:59;;;;;;;18.33;6.87;;;;;;;;;;5072596;28;20450;-67
2021/05/14 06:03:24;;;;;;;18.73;6.80;;;;;;;;;;5072523;28;20020;-67
2021/05/14 06:05:50;;;;;;;18.60;7.20;;;;;;;;;;5062869;28;20037;-67
2021/05/14 06:08:15;;;;;;;14.73;5.67;;;;;;;;;;5072572;28;20027;-67
2021/05/14 06:10:41;;;;;;;17.17;6.17;;;;;;;;;;5072768;28;20056;-67
2021/05/14 06:13:06;;;;;;;18.67;6.07;;;;;;;;;;5072730;28;20107;-66
2021/05/14 06:15:32;;;;;;;16.30;6.03;;;;;;;;;;5072361;28;20103;-67
2021/05/14 06:17:57;;;;;;;18.07;7.07;;;;;;;;;;5072403;28;20507;-67
2021/05/14 06:20:25;;;;;;;18.53;6.53;;;;;;;;;;5072542;28;20070;-67
2021/05/14 06:22:50;;;;;;;19.37;6.73;;;;;;;;;;5072839;28;20021;-67
2021/05/14 06:25:15;;;;;;;17.07;5.90;;;;;;;;;;5072444;28;20477;-67
2021/05/14 06:27:41;;;;;;;15.20;5.77;;;;;;;;;;5072840;28;20012;-67
2021/05/14 06:30:06;;;;;;;17.93;6.10;;;;;;;;;;5067974;28;20032;-67
2021/05/14 06:32:32;;;;;;;15.77;5.80;;;;;;;;;;5072767;28;20033;-67
2021/05/14 06:34:57;;;;;;;16.00;5.53;;;;;;;;;;5072733;28;20094;-67
2021/05/14 06:37:22;;;;;;;16.30;5.80;;;;;;;;;;5072600;28;20028;-67
2021/05/14 06:39:48;;;;;;;16.50;5.60;;;;;;;;;;5072277;28;20035;-66
2021/05/14 06:42:13;;;;;;;15.33;5.77;;;;;;;;;;5072486;28;20024;-67
2021/05/14 06:44:39;;;;;;;18.17;6.33;;;;;;;;;;5078168;28;20461;-67
2021/05/14 06:47:04;;;;;;;20.47;6.20;;;;;;;;;;5072240;28;20031;-67
2021/05/14 06:49:30;;;;;;;17.03;6.07;;;;;;;;;;5072276;28;20100;-67
2021/05/14 06:51:55;;;;;;;17.20;5.60;;;;;;;;;;5071742;28;20031;-66
2021/05/14 06:54:20;;;;;;;18.33;6.00;;;;;;;;;;5069887;28;20036;-66
2021/05/14 06:56:46;;;;;;;13.60;5.07;;;;;;;;;;5071723;28;20028;-67
2021/05/14 06:59:11;;;;;;;16.23;5.23;;;;;;;;;;5071960;28;20062;-67
2021/05/14 07:01:36;;;;;;;15.30;5.13;;;;;;;;;;5071461;28;20038;-67
2021/05/14 07:04:02;;;;;;;13.07;4.70;;;;;;;;;;5070368;28;20048;-67
2021/05/14 07:06:29;;;;;;;11.40;4.43;;;;;;;;;;5070275;28;20029;-67
2021/05/14 07:08:54;;;;;;;12.50;4.67;;;;;;;;;;5071828;28;20215;-67
2021/05/14 07:11:19;;;;;;;10.90;4.43;;;;;;;;;;5061516;28;20056;-67
2021/05/14 07:13:45;;;;;;;11.33;4.20;;;;;;;;;;5071972;28;20024;-67
2021/05/14 07:16:10;;;;;;;11.90;4.27;;;;;;;;;;5071495;28;20095;-66
2021/05/14 07:18:35;;;;;;;11.57;4.10;;;;;;;;;;5071887;28;20028;-67
2021/05/14 07:21:01;;;;;;;14.70;5.07;;;;;;;;;;5074523;28;20025;-67
2021/05/14 07:23:26;;;;;;;11.63;4.33;;;;;;;;;;5075887;28;20119;-67
2021/05/14 07:25:51;;;;;;;11.07;3.97;;;;;;;;;;5075384;28;20054;-66
2021/05/14 07:28:19;;;;;;;12.10;4.70;;;;;;;;;;5076065;28;20459;-66
2021/05/14 07:30:45;;;;;;;13.43;4.73;;;;;;;;;;5075587;28;20024;-66
2021/05/14 07:33:10;;;;;;;12.20;4.53;;;;;;;;;;5075545;28;20039;-66
2021/05/14 07:35:35;;;;;;;15.53;4.70;;;;;;;;;;5075703;28;20067;-66
2021/05/14 07:38:01;;;;;;;10.20;3.87;;;;;;;;;;5075660;28;20037;-66
2021/05/14 07:40:26;;;;;;;12.93;4.97;;;;;;;;;;5074777;28;20032;-67
2021/05/14 07:42:52;;;;;;;11.87;4.67;;;;;;;;;;5074962;28;20037;-67
2021/05/14 07:45:17;;;;;;;10.03;4.40;;;;;;;;;;5075080;28;20048;-67
2021/05/14 07:47:42;;;;;;;12.50;4.73;;;;;;;;;;5061992;28;20392;-67
2021/05/14 07:50:08;;;;;;;14.07;4.60;;;;;;;;;;5075020;28;20040;-67
2021/05/14 07:52:33;;;;;;;9.63;4.37;;;;;;;;;;5075356;28;20033;-67
2021/05/14 07:55:00;;;;;;;10.40;4.40;;;;;;;;;;5074664;28;20393;-67
2021/05/14 07:57:25;;;;;;;16.17;5.30;;;;;;;;;;5077377;28;20032;-67
2021/05/14 07:59:50;;;;;;;30.93;8.43;;;;;;;;;;5082832;28;20042;-67
2021/05/14 08:02:16;;;;;;;32.13;9.77;;;;;;;;;;5075273;28;20115;-67
2021/05/14 08:04:41;;;;;;;31.27;8.93;;;;;;;;;;5074308;28;20471;-67
2021/05/14 08:07:06;;;;;;;27.80;8.80;;;;;;;;;;5074992;28;20032;-67
2021/05/14 08:09:31;;;;;;;18.70;5.57;;;;;;;;;;5066776;28;20432;-67
2021/05/14 08:11:57;;;;;;;13.80;5.37;;;;;;;;;;5074095;28;20036;-67
2021/05/14 08:14:22;;;;;;;11.73;4.60;;;;;;;;;;5073006;28;20024;-67
2021/05/14 08:16:47;;;;;;;13.37;4.63;;;;;;;;;;5072690;28;20033;-67
2021/05/14 08:19:13;;;;;;;11.47;4.50;;;;;;;;;;5073977;28;20414;-67
2021/05/14 08:21:47;;;;;;;9.30;3.83;;;;;;;;;;5065682;28;20433;-66
2021/05/14 08:24:13;;;;;;;9.67;3.60;;;;;;;;;;5072424;28;20047;-66
2021/05/14 08:26:39;;;;;;;10.40;4.17;;;;;;;;;;5067955;28;20020;-66
2021/05/14 08:29:05;;;;;;;9.17;3.50;;;;;;;;;;5072523;28;20472;-66
2021/05/14 08:31:33;;;;;;;10.47;4.27;;;;;;;;;;5070610;28;20103;-67
2021/05/14 08:33:58;;;;;;;13.00;4.23;;;;;;;;;;5074427;28;20020;-66
2021/05/14 08:36:23;;;;;;;11.77;3.47;;;;;;;;;;5070588;28;20025;-68
2021/05/14 08:38:49;;;;;;;11.87;4.17;;;;;;;;;;5073302;28;20068;-67
2021/05/14 08:41:14;;;;;;;11.13;3.67;;;;;;;;;;5072591;28;20036;-67
2021/05/14 08:43:39;;;;;;;11.10;4.37;;;;;;;;;;5073554;28;20432;-67
2021/05/14 08:46:06;;;;;;;10.70;4.17;;;;;;;;;;5062228;28;20488;-67
2021/05/14 08:48:32;;;;;;;9.57;3.90;;;;;;;;;;5073809;28;20075;-68
2021/05/14 08:50:57;;;;;;;10.80;4.03;;;;;;;;;;5070735;28;20024;-67
2021/05/14 08:53:22;;;;;;;11.50;4.80;;;;;;;;;;5064222;28;20043;-67
2021/05/14 08:55:48;;;;;;;9.50;3.93;;;;;;;;;;5074149;28;20020;-68
2021/05/14 08:58:13;;;;;;;8.13;3.93;;;;;;;;;;5073888;28;20530;-68
2021/05/14 09:00:39;;;;;;;7.37;3.20;;;;;;;;;;5065291;28;20060;-68
2021/05/14 09:03:08;;;;;;;7.73;3.17;;;;;;;;;;5071136;28;20047;-68
2021/05/14 09:05:34;;;;;;;10.90;4.33;;;;;;;;;;5073232;28;20044;-68
2021/05/14 09:08:00;;;;;;;9.43;4.00;;;;;;;;;;5071661;28;20535;-68
2021/05/14 09:10:26;;;;;;;9.27;3.77;;;;;;;;;;5070679;28;20024;-68
2021/05/14 09:12:51;;;;;;;10.13;3.87;;;;;;;;;;5068415;28;20465;-68
2021/05/14 09:15:34;;;;;;;9.83;3.80;;;;;;;;;;5072184;28;21621;-68
2021/05/14 09:18:15;;;;;;;11.47;3.67;;;;;;;;;;5072512;28;20362;-68
2021/05/14 09:20:45;;;;;;;9.60;4.37;;;;;;;;;;5073339;28;20032;-68
2021/05/14 09:23:16;;;;;;;10.93;4.57;;;;;;;;;;5069397;28;20122;-68
2021/05/14 09:25:53;;;;;;;10.20;3.67;;;;;;;;;;5070936;28;20101;-68
2021/05/14 09:28:26;;;;;;;10.37;4.00;;;;;;;;;;5050174;28;20021;-68
2021/05/14 09:30:51;;;;;;;;;;;;;;;;;;5067520;28;20032;-68
2021/05/14 09:33:24;;;;;;;10.68;3.95;;;;;;;;;;5071683;28;19909;-68
2021/05/14 09:35:55;;;;;;;10.83;4.60;;;;;;;;;;5068998;28;20064;-67
2021/05/14 09:38:20;;;;;;;12.67;4.40;;;;;;;;;;5069773;28;20372;-68
2021/05/14 09:40:46;;;;;;;10.37;4.93;;;;;;;;;;5072947;28;20025;-67
2021/05/14 09:43:11;;;;;;;13.03;5.00;;;;;;;;;;5068766;28;20028;-67
2021/05/14 09:45:37;;;;;;;10.67;5.13;;;;;;;;;;5068334;28;20016;-68
2021/05/14 09:48:42;;;;;;;13.60;4.73;;;;;;;;;;5073192;28;20412;-68
2021/05/14 09:51:00;;;;;;;11.27;4.83;;;;;;;;;;5063888;28;20037;-68
2021/05/14 09:53:25;;;;;;;11.30;4.83;;;;;;;;;;5062385;28;20051;-68
2021/05/14 09:55:55;;;;;;;10.60;5.00;;;;;;;;;;5066617;28;20378;-68
2021/05/14 09:58:24;;;;;;;12.30;5.10;;;;;;;;;;5070749;28;20028;-69
2021/05/14 10:00:49;;;;;;;10.80;4.80;;;;;;;;;;5073561;28;20025;-68
2021/05/14 10:03:15;;;;;;;11.73;5.33;;;;;;;;;;5073559;28;20024;-69
2021/05/14 10:05:41;;;;;;;10.30;5.07;;;;;;;;;;5067345;28;20024;-68
2021/05/14 10:08:07;;;;;;;12.43;5.10;;;;;;;;;;5068707;28;20461;-68
2021/05/14 10:10:34;;;;;;;10.57;5.60;;;;;;;;;;5068988;28;20039;-68
2021/05/14 10:13:00;;;;;;;14.77;5.97;;;;;;;;;;5070235;28;20025;-68
2021/05/14 10:15:25;;;;;;;11.17;5.27;;;;;;;;;;5072501;28;20040;-68
2021/05/14 10:17:52;;;;;;;13.60;5.07;;;;;;;;;;5074362;28;20020;-68
2021/05/14 10:20:18;;;;;;;9.27;4.17;;;;;;;;;;5066895;28;20074;-68
2021/05/14 10:22:45;;;;;;;9.83;4.40;;;;;;;;;;5069755;28;20032;-68
2021/05/14 10:25:12;;;;;;;11.17;5.10;;;;;;;;;;5067836;28;20098;-68
2021/05/14 10:27:37;;;;;;;9.17;4.20;;;;;;;;;;5066924;28;20069;-68
2021/05/14 10:30:03;;;;;;;8.97;4.30;;;;;;;;;;5061735;28;20039;-69
2021/05/14 10:32:43;;;;;;;10.90;4.60;;;;;;;;;;5073165;28;20013;-69
2021/05/14 10:35:26;;;;;;;9.93;4.40;;;;;;;;;;5072168;28;20020;-68
2021/05/14 10:37:52;;;;;;;10.90;4.45;;;;;;;;;;5072501;28;20020;-68
2021/05/14 10:40:26;;;;;;;9.67;3.80;;;;;;;;;;5072532;28;20111;-69
2021/05/14 10:42:51;;;;;;;8.37;3.93;;;;;;;;;;5059517;28;20044;-68
2021/05/14 10:45:36;;;;;;;7.43;3.57;;;;;;;;;;5072255;28;20096;-68
2021/05/14 10:48:01;;;;;;;9.60;4.07;;;;;;;;;;5072473;28;20020;-68
2021/05/14 10:50:37;;;;;;;10.20;4.60;;;;;;;;;;5072034;28;20067;-68
2021/05/14 10:53:18;;;;;;;8.27;3.67;;;;;;;;;;5073365;28;20024;-68
2021/05/14 10:55:44;;;;;;;8.25;3.53;;;;;;;;;;5064665;28;20029;-68
2021/05/14 10:58:09;;;;;;;7.10;3.50;;;;;;;;;;5076760;28;20031;-69
2021/05/14 11:00:35;;;;;;;9.47;4.27;;;;;;;;;;5075330;28;20028;-68
2021/05/14 11:03:09;;;;;;;8.47;4.30;;;;;;;;;;5077547;28;20082;-69
2021/05/14 11:05:35;;;;;;;13.80;4.90;;;;;;;;;;5075329;28;20045;-69
2021/05/14 11:08:00;;;;;;;9.43;4.40;;;;;;;;;;5076481;28;20028;-69
2021/05/14 11:10:29;;;;;;;8.23;4.10;;;;;;;;;;5076103;28;20064;-68
2021/05/14 11:12:54;;;;;;;11.40;4.33;;;;;;;;;;5076254;28;20012;-69
2021/05/14 11:15:20;;;;;;;9.97;4.10;;;;;;;;;;5076219;28;20085;-69
2021/05/14 11:18:03;;;;;;;10.07;4.67;;;;;;;;;;5076182;28;20372;-69
2021/05/14 11:20:39;;;;;;;11.23;4.43;;;;;;;;;;5061838;28;20043;-69
2021/05/14 11:23:23;;;;;;;10.07;4.50;;;;;;;;;;5063500;28;20032;-70
2021/05/14 11:25:48;;;;;;;9.10;4.43;;;;;;;;;;5075655;28;20055;-69
2021/05/14 11:28:14;;;;;;;8.15;4.22;;;;;;;;;;5075593;28;20041;-69
2021/05/14 11:31:07;;;;;;;9.35;4.45;;;;;;;;;;5075986;28;20035;-72
2021/05/14 11:33:32;;;;;;;8.63;4.40;;;;;;;;;;5068680;28;20495;-70
2021/05/14 11:35:58;;;;;;;7.53;4.00;;;;;;;;;;5072408;28;20028;-69
2021/05/14 11:38:23;;;;;;;10.38;5.03;;;;;;;;;;5075069;28;20062;-69
2021/05/14 11:40:50;;;;;;;9.93;5.07;;;;;;;;;;5073926;28;20043;-69
2021/05/14 11:43:15;;;;;;;10.70;4.90;;;;;;;;;;5065697;28;20017;-69
2021/05/14 11:45:41;;;;;;;12.52;4.97;;;;;;;;;;5071892;28;20029;-69
2021/05/14 11:48:11;;;;;;;11.25;4.82;;;;;;;;;;5062696;28;20062;-70
2021/05/14 11:50:37;;;;;;;11.02;4.90;;;;;;;;;;5065796;28;20461;-69
2021/05/14 11:53:04;;;;;;;10.38;4.85;;;;;;;;;;5068106;28;20039;-69
2021/05/14 11:55:30;;;;;;;10.10;4.80;;;;;;;;;;5066625;28;20093;-69
2021/05/14 11:57:57;;;;;;;11.05;4.90;;;;;;;;;;5061146;28;20033;-69
2021/05/14 12:00:33;;;;;;;10.05;4.75;;;;;;;;;;5064366;28;20033;-70
2021/05/14 12:03:01;;;;;;;10.43;4.85;;;;;;;;;;5068377;28;20213;-69
2021/05/14 12:05:28;;;;;;;11.23;4.70;;;;;;;;;;5061619;28;20070;-69
2021/05/14 12:07:53;;;;;;;9.13;4.88;;;;;;;;;;5068696;28;20028;-70
2021/05/14 12:10:19;;;;;;;9.82;4.60;;;;;;;;;;5070664;28;20044;-69
2021/05/14 12:12:45;;;;;;;11.20;5.60;;;;;;;;;;5067047;28;20039;-69
2021/05/14 12:15:13;;;;;;;12.48;5.15;;;;;;;;;;5069552;28;20024;-69
2021/05/14 12:17:38;;;;;;;11.07;5.07;;;;;;;;;;5067211;28;20435;-69
2021/05/14 12:20:22;;;;;;;9.95;5.25;;;;;;;;;;5066592;28;20095;-69
2021/05/14 12:22:49;;;;;;;9.82;4.88;;;;;;;;;;5067221;28;20031;-69
2021/05/14 12:25:14;;;;;;;9.73;4.53;;;;;;;;;;5070718;28;20028;-69
2021/05/14 12:27:40;;;;;;;10.23;5.20;;;;;;;;;;5067920;28;20058;-69
2021/05/14 12:30:07;;;;;;;10.65;4.97;;;;;;;;;;5060419;28;20048;-69
2021/05/14 12:32:33;;;;;;;9.20;4.72;;;;;;;;;;5062846;28;20032;-69
2021/05/14 12:34:58;;;;;;;12.88;6.38;;;;;;;;;;5065648;28;20037;-69
2021/05/14 12:37:23;;;;;;;10.52;4.82;;;;;;;;;;5063830;28;20032;-69
2021/05/14 12:39:49;;;;;;;9.93;5.35;;;;;;;;;;5064400;28;20114;-69
2021/05/14 12:42:43;;;;;;;10.13;5.47;;;;;;;;;;5067767;28;20024;-68
2021/05/14 12:45:09;;;;;;;13.48;5.63;;;;;;;;;;5042362;28;20116;-69
2021/05/14 12:47:36;;;;;;;11.98;5.65;;;;;;;;;;5064089;28;20039;-69
2021/05/14 12:50:03;;;;;;;11.32;5.32;;;;;;;;;;5067812;28;20534;-69
2021/05/14 12:52:30;;;;;;;13.43;5.72;;;;;;;;;;5065350;28;20143;-69
2021/05/14 12:55:06;;;;;;;10.98;5.35;;;;;;;;;;5065367;28;20035;-69
2021/05/14 12:57:36;;;;;;;12.32;5.60;;;;;;;;;;5068047;28;20025;-68
2021/05/14 13:00:05;;;;;;;14.02;6.38;;;;;;;;;;5064885;28;20119;-68
2021/05/14 13:02:33;;;;;;;13.40;6.25;;;;;;;;;;5062208;28;20035;-68
2021/05/14 13:04:59;;;;;;;13.02;5.82;;;;;;;;;;5065737;28;20049;-69
2021/05/14 13:07:25;;;;;;;12.25;6.10;;;;;;;;;;5067479;28;20477;-68
2021/05/14 13:09:50;;;;;;;13.60;6.30;;;;;;;;;;5064240;28;20400;-69
2021/05/14 13:12:16;;;;;;;11.85;5.85;;;;;;;;;;5065885;28;20334;-68
2021/05/14 13:14:41;;;;;;;11.55;5.55;;;;;;;;;;5066516;28;20055;-69
2021/05/14 13:17:06;;;;;;;12.77;5.13;;;;;;;;;;5064254;28;20082;-68
2021/05/14 13:19:32;;;;;;;12.45;5.60;;;;;;;;;;5069186;28;20028;-69
2021/05/14 13:21:57;;;;;;;11.65;5.28;;;;;;;;;;5069463;28;20025;-69
2021/05/14 13:24:22;;;;;;;12.20;5.60;;;;;;;;;;5068144;28;20432;-69
2021/05/14 13:26:48;;;;;;;10.70;4.43;;;;;;;;;;5063697;28;20435;-69
2021/05/14 13:29:13;;;;;;;12.85;4.88;;;;;;;;;;5070325;28;20035;-69
2021/05/14 13:31:38;;;;;;;9.98;4.45;;;;;;;;;;5066194;28;20039;-69
2021/05/14 13:34:04;;;;;;;9.82;4.72;;;;;;;;;;5062031;28;20370;-68
2021/05/14 13:36:29;;;;;;;9.60;4.90;;;;;;;;;;5066463;28;20044;-68
2021/05/14 13:38:54;;;;;;;12.80;5.32;;;;;;;;;;5068769;28;20374;-68
2021/05/14 13:41:19;;;;;;;10.20;4.05;;;;;;;;;;5066501;28;20040;-69
2021/05/14 13:43:45;;;;;;;10.32;4.50;;;;;;;;;;5063762;28;20029;-69
2021/05/14 13:46:10;;;;;;;9.90;3.85;;;;;;;;;;5066570;28;20449;-69
2021/05/14 13:48:36;;;;;;;10.15;4.03;;;;;;;;;;5049063;28;20161;-69
2021/05/14 13:51:01;;;;;;;7.50;3.65;;;;;;;;;;5065485;28;20107;-68
2021/05/14 13:53:27;;;;;;;8.88;3.88;;;;;;;;;;5068129;28;20056;-68
2021/05/14 13:55:53;;;;;;;9.35;4.45;;;;;;;;;;5067271;28;20032;-68
2021/05/14 13:58:18;;;;;;;11.23;4.05;;;;;;;;;;5068093;28;20032;-68
2021/05/14 14:00:43;;;;;;;9.02;4.38;;;;;;;;;;5069107;28;20034;-69
2021/05/14 14:03:09;;;;;;;9.68;4.28;;;;;;;;;;5066041;28;20081;-68
2021/05/14 14:05:34;;;;;;;8.50;3.95;;;;;;;;;;5062779;28;20036;-68
2021/05/14 14:07:59;;;;;;;9.02;3.78;;;;;;;;;;5068820;28;20044;-68
2021/05/14 14:10:24;;;;;;;7.97;3.75;;;;;;;;;;5069669;28;20040;-68
2021/05/14 14:12:53;;;;;;;7.22;3.60;;;;;;;;;;5068544;28;20542;-68
2021/05/14 14:15:19;;;;;;;8.38;3.63;;;;;;;;;;5068282;28;20028;-68
2021/05/14 14:17:44;;;;;;;12.23;3.70;;;;;;;;;;5068212;28;20527;-68
2021/05/14 14:20:10;;;;;;;10.65;3.70;;;;;;;;;;5067516;28;20036;-68
2021/05/14 14:22:35;;;;;;;7.53;3.30;;;;;;;;;;5067808;28;20389;-68
2021/05/14 14:25:00;;;;;;;8.80;3.90;;;;;;;;;;5067920;28;20032;-68
2021/05/14 14:27:31;;;;;;;7.05;3.40;;;;;;;;;;5067952;28;20025;-68
2021/05/14 14:29:56;;;;;;;8.27;3.22;;;;;;;;;;5070023;28;20047;-68
2021/05/14 14:32:22;;;;;;;7.85;4.25;;;;;;;;;;5070065;28;20029;-68
2021/05/14 14:34:47;;;;;;;6.95;3.25;;;;;;;;;;5069739;28;20040;-69